Time;durP1;ratioP1;P1;durP2;ratioP2;P2;SDS_P1;SDS_P2;PMS_P1;PMS_P2;Temp;Humidity;BMP_temperature;BMP_pressure;BME280_temperature;BME280_humidity;BME280_pressure;Samples;Min_cycle;Max_cycle;Signal;HPM_P1;HPM_P2
2022/09/21 00:01:44;;;;;;;8.43;4.87;;;6.70;99.90;;;;;;4946746;28;20831;-78
2022/09/21 00:04:10;;;;;;;5.97;4.77;;;6.60;99.90;;;;;;4946581;28;21118;-77
2022/09/21 00:06:36;;;;;;;6.50;4.80;;;6.60;99.90;;;;;;4948292;28;20260;-78
2022/09/21 00:09:03;;;;;;;7.67;5.10;;;6.60;99.90;;;;;;4947578;28;20273;-78
2022/09/21 00:11:31;;;;;;;7.27;5.50;;;6.60;99.90;;;;;;4948072;28;20181;-78
2022/09/21 00:14:03;;;;;;;7.00;5.07;;;6.60;99.90;;;;;;4945465;28;20304;-77
2022/09/21 00:16:30;;;;;;;7.20;5.30;;;6.60;99.90;;;;;;4947848;28;20230;-78
2022/09/21 00:18:56;;;;;;;6.77;5.37;;;6.60;99.90;;;;;;4947156;28;20667;-78
2022/09/21 00:21:22;;;;;;;10.13;5.57;;;6.60;99.90;;;;;;4947791;28;20209;-77
2022/09/21 00:23:48;;;;;;;7.10;5.50;;;6.60;99.90;;;;;;4947729;28;20606;-79
2022/09/21 00:26:16;;;;;;;6.20;5.30;;;6.60;99.90;;;;;;4947942;28;20205;-79
2022/09/21 00:28:43;;;;;;;8.77;5.77;;;6.60;99.90;;;;;;4947421;28;20190;-78
2022/09/21 00:31:11;;;;;;;9.23;5.67;;;6.50;99.90;;;;;;4947847;28;20186;-77
2022/09/21 00:33:39;;;;;;;8.53;5.87;;;6.40;99.90;;;;;;4946798;28;20687;-77
2022/09/21 00:36:07;;;;;;;10.23;6.10;;;6.60;99.90;;;;;;4947638;28;20206;-77
2022/09/21 00:38:35;;;;;;;7.30;5.73;;;6.60;99.90;;;;;;4945699;28;20189;-77
2022/09/21 00:41:01;;;;;;;9.43;6.43;;;6.60;99.90;;;;;;4946605;28;20181;-77
2022/09/21 00:43:26;;;;;;;7.73;6.07;;;6.60;99.90;;;;;;4945392;28;20185;-78
2022/09/21 00:46:12;;;;;;;7.33;6.60;;;6.50;99.90;;;;;;4945678;28;20267;-77
2022/09/21 00:48:37;;;;;;;9.93;6.10;;;6.50;99.90;;;;;;4961373;28;20241;-78
2022/09/21 00:51:06;;;;;;;6.50;5.80;;;6.40;99.90;;;;;;4947180;28;20268;-77
2022/09/21 00:53:33;;;;;;;6.90;6.20;;;6.40;99.90;;;;;;4946351;28;20208;-77
2022/09/21 00:56:01;;;;;;;6.90;5.80;;;6.40;99.90;;;;;;4947308;28;20210;-80
2022/09/21 00:58:37;;;;;;;9.17;6.03;;;6.40;99.90;;;;;;4945392;28;20196;-78
2022/09/21 01:01:02;;;;;;;7.43;6.67;;;6.40;99.90;;;;;;4947582;28;20200;-78
2022/09/21 01:03:30;;;;;;;6.70;6.00;;;6.40;99.90;;;;;;4947076;28;20185;-79
2022/09/21 01:05:55;;;;;;;7.87;6.80;;;6.40;99.90;;;;;;4947009;28;20205;-77
2022/09/21 01:08:24;;;;;;;8.03;6.27;;;6.40;99.90;;;;;;4947197;28;20193;-78
2022/09/21 01:11:09;;;;;;;7.47;6.07;;;6.20;99.90;;;;;;4947252;28;20192;-77
2022/09/21 01:13:47;;;;;;;8.50;6.70;;;6.20;99.90;;;;;;4946595;28;20204;-78
2022/09/21 01:16:23;;;;;;;8.20;7.03;;;6.30;99.90;;;;;;4947153;28;20205;-79
2022/09/21 01:19:13;;;;;;;8.57;7.40;;;6.20;99.90;;;;;;4946840;28;20272;-79
2022/09/21 01:21:57;;;;;;;7.70;6.40;;;6.30;99.90;;;;;;4945034;28;20185;-79
2022/09/21 01:24:44;;;;;;;7.17;6.17;;;6.30;99.90;;;;;;4944738;28;20224;-77
2022/09/21 01:27:33;;;;;;;6.57;5.97;;;6.10;99.90;;;;;;4946841;28;20256;-79
2022/09/21 01:30:01;;;;;;;10.53;5.83;;;6.20;99.90;;;;;;4946329;28;20249;-78
2022/09/21 01:32:36;;;;;;;9.53;6.20;;;6.20;99.90;;;;;;4946185;28;20208;-79
2022/09/21 01:35:26;;;;;;;8.00;6.67;;;6.20;99.90;;;;;;4946495;28;20188;-79
2022/09/21 01:38:08;;;;;;;11.33;7.67;;;6.20;99.90;;;;;;4945157;28;20194;-77
2022/09/21 01:40:47;;;;;;;10.87;7.20;;;6.10;99.90;;;;;;4946227;28;20185;-76
2022/09/21 01:43:18;;;;;;;8.67;7.53;;;6.10;99.90;;;;;;4944656;28;20821;-76
2022/09/21 01:45:48;;;;;;;10.87;7.50;;;6.10;99.90;;;;;;4945951;28;20230;-78
2022/09/21 01:48:15;;;;;;;7.67;6.87;;;6.00;99.90;;;;;;4945489;28;21077;-77
2022/09/21 01:50:45;;;;;;;9.83;7.37;;;6.00;99.90;;;;;;4946635;28;20197;-78
2022/09/21 01:53:23;;;;;;;8.77;7.23;;;5.90;99.90;;;;;;4946858;28;20201;-80
2022/09/21 01:55:54;;;;;;;8.67;6.93;;;6.00;99.90;;;;;;4945052;28;20209;-78
2022/09/21 01:58:22;;;;;;;8.83;6.47;;;6.00;99.90;;;;;;4946926;28;20178;-78
2022/09/21 02:00:51;;;;;;;9.93;7.63;;;5.90;99.90;;;;;;4946329;28;20181;-79
2022/09/21 02:03:27;;;;;;;8.47;6.90;;;5.90;99.90;;;;;;4946570;28;20657;-77
2022/09/21 02:05:54;;;;;;;9.90;7.70;;;6.00;99.90;;;;;;4944530;28;20213;-77
2022/09/21 02:08:19;;;;;;;9.90;7.57;;;5.90;99.90;;;;;;4946954;28;20181;-77
2022/09/21 02:10:49;;;;;;;10.67;8.03;;;5.90;99.90;;;;;;4944858;28;20178;-77
2022/09/21 02:13:17;;;;;;;11.30;7.93;;;5.80;99.90;;;;;;4960765;28;20216;-78
2022/09/21 02:16:07;;;;;;;10.50;7.43;;;5.70;99.90;;;;;;4945620;28;20198;-77
2022/09/21 02:19:10;;;;;;;10.53;7.63;;;5.60;99.90;;;;;;4946143;28;20287;-78
2022/09/21 02:21:45;;;;;;;11.10;7.87;;;5.60;99.90;;;;;;4960640;28;20181;-78
2022/09/21 02:24:37;;;;;;;9.37;6.93;;;5.70;99.90;;;;;;4946387;28;20189;-77
2022/09/21 02:27:38;;;;;;;11.87;7.00;;;5.70;99.90;;;;;;4946692;28;20704;-77
2022/09/21 02:30:14;;;;;;;11.23;7.00;;;5.80;99.90;;;;;;4943267;28;20213;-78
2022/09/21 02:32:50;;;;;;;7.63;6.83;;;5.70;99.90;;;;;;4946206;28;20201;-79
2022/09/21 02:35:35;;;;;;;9.00;6.97;;;5.70;99.90;;;;;;4945642;28;20177;-77
2022/09/21 02:38:38;;;;;;;10.80;7.27;;;5.70;99.90;;;;;;4945312;28;20687;-78
2022/09/21 02:41:12;;;;;;;8.63;7.10;;;5.70;99.90;;;;;;4945572;28;20595;-79
2022/09/21 02:43:44;;;;;;;10.40;7.00;;;5.60;99.90;;;;;;4948738;28;20560;-77
2022/09/21 02:46:23;;;;;;;9.83;7.40;;;5.60;99.90;;;;;;4949354;28;20228;-76
2022/09/21 02:48:53;;;;;;;9.33;6.73;;;5.60;99.90;;;;;;4948906;28;20185;-78
2022/09/21 02:51:26;;;;;;;9.63;7.00;;;5.60;99.90;;;;;;4950092;28;20190;-77
2022/09/21 02:53:53;;;;;;;6.83;6.13;;;5.60;99.90;;;;;;4949573;28;20213;-76
2022/09/21 02:56:20;;;;;;;10.67;7.07;;;5.50;99.90;;;;;;4949693;28;20201;-78
2022/09/21 02:58:49;;;;;;;9.27;6.57;;;5.50;99.90;;;;;;4949585;28;20189;-78
2022/09/21 03:01:17;;;;;;;7.00;6.23;;;5.50;99.90;;;;;;4949384;28;20189;-79
2022/09/21 03:03:43;;;;;;;9.17;6.77;;;5.50;99.90;;;;;;4948290;28;20196;-78
2022/09/21 03:06:09;;;;;;;10.13;6.20;;;5.50;99.90;;;;;;4948025;28;20209;-78
2022/09/21 03:08:35;;;;;;;7.00;6.30;;;5.50;99.90;;;;;;4949708;28;20656;-77
2022/09/21 03:11:01;;;;;;;9.67;7.10;;;5.50;99.90;;;;;;4949024;28;20217;-78
2022/09/21 03:13:27;;;;;;;7.80;6.70;;;5.50;99.90;;;;;;4949337;28;20704;-77
2022/09/21 03:16:01;;;;;;;8.97;6.63;;;5.50;99.90;;;;;;4948770;28;20233;-77
2022/09/21 03:18:27;;;;;;;8.37;6.50;;;5.40;99.90;;;;;;4949809;28;20268;-79
2022/09/21 03:20:52;;;;;;;9.40;6.37;;;5.50;99.90;;;;;;4949070;28;20360;-79
2022/09/21 03:23:18;;;;;;;10.23;7.20;;;5.50;99.90;;;;;;4949388;28;20193;-77
2022/09/21 03:25:44;;;;;;;9.13;7.03;;;5.50;99.90;;;;;;4948679;28;20220;-77
2022/09/21 03:28:12;;;;;;;7.23;6.30;;;5.50;99.90;;;;;;4949557;28;20191;-78
2022/09/21 03:30:38;;;;;;;10.17;7.30;;;5.50;99.90;;;;;;4947755;28;20190;-78
2022/09/21 03:33:04;;;;;;;9.70;7.30;;;5.50;99.90;;;;;;4947634;28;20205;-76
2022/09/21 03:35:32;;;;;;;8.97;6.43;;;5.50;99.90;;;;;;4949227;28;20573;-79
2022/09/21 03:37:58;;;;;;;10.13;7.33;;;5.50;99.90;;;;;;4949050;28;20272;-78
2022/09/21 03:40:25;;;;;;;10.43;7.70;;;5.50;99.90;;;;;;4948542;28;20178;-78
2022/09/21 03:42:51;;;;;;;11.07;7.60;;;5.40;99.90;;;;;;4949335;28;20664;-78
2022/09/21 03:45:16;;;;;;;8.03;6.47;;;5.40;99.90;;;;;;4947162;28;20201;-78
2022/09/21 03:47:42;;;;;;;10.40;6.63;;;5.40;99.90;;;;;;4947866;28;20196;-77
2022/09/21 03:50:08;;;;;;;10.00;6.73;;;5.40;99.90;;;;;;4948834;28;20197;-77
2022/09/21 03:52:36;;;;;;;8.67;6.47;;;5.30;99.90;;;;;;4947904;28;20209;-77
2022/09/21 03:55:05;;;;;;;8.03;6.43;;;5.20;99.90;;;;;;4948996;28;20186;-78
2022/09/21 03:57:37;;;;;;;8.67;6.80;;;5.10;99.90;;;;;;4948177;28;20197;-78
2022/09/21 04:00:08;;;;;;;9.50;6.63;;;5.10;99.90;;;;;;4948873;28;20554;-77
2022/09/21 04:02:34;;;;;;;6.90;6.17;;;5.20;99.90;;;;;;4946958;28;20182;-78
2022/09/21 04:05:00;;;;;;;8.17;6.30;;;5.20;99.90;;;;;;4948215;28;20185;-78
2022/09/21 04:07:25;;;;;;;9.93;7.23;;;5.30;99.90;;;;;;4949025;28;20209;-76
2022/09/21 04:09:52;;;;;;;8.90;7.00;;;5.30;99.90;;;;;;4948385;28;20204;-79
2022/09/21 04:12:21;;;;;;;11.57;6.70;;;5.30;99.90;;;;;;4947998;28;20243;-77
2022/09/21 04:14:48;;;;;;;9.37;6.43;;;5.20;99.90;;;;;;4947992;28;21232;-79
2022/09/21 04:17:14;;;;;;;10.03;7.13;;;5.10;99.90;;;;;;4948110;28;20280;-79
2022/09/21 04:19:39;;;;;;;10.37;7.30;;;5.00;99.90;;;;;;4946504;28;20687;-77
2022/09/21 04:22:05;;;;;;;12.17;8.30;;;5.00;99.90;;;;;;4946571;28;20197;-76
2022/09/21 04:24:30;;;;;;;13.73;9.10;;;5.10;99.90;;;;;;4946342;28;20185;-79
2022/09/21 04:26:56;;;;;;;12.40;7.87;;;5.10;99.90;;;;;;4947611;28;20933;-78
2022/09/21 04:29:21;;;;;;;12.60;8.57;;;4.60;99.90;;;;;;4962259;28;20190;-76
2022/09/21 04:31:47;;;;;;;11.60;7.80;;;4.90;99.90;;;;;;4948189;28;20629;-77
2022/09/21 04:34:13;;;;;;;13.60;9.13;;;5.00;99.90;;;;;;4948110;28;20209;-77
2022/09/21 04:36:38;;;;;;;40.07;21.93;;;5.20;99.90;;;;;;4947991;28;20260;-76
2022/09/21 04:39:05;;;;;;;28.57;16.70;;;5.20;99.90;;;;;;4947958;28;20189;-77
2022/09/21 04:41:30;;;;;;;22.57;14.17;;;5.20;99.90;;;;;;4946036;28;20186;-76
2022/09/21 04:43:56;;;;;;;25.13;13.87;;;5.00;99.90;;;;;;4947988;28;20706;-79
2022/09/21 04:46:22;;;;;;;19.47;12.33;;;5.10;99.90;;;;;;4947389;28;20236;-78
2022/09/21 04:48:48;;;;;;;18.57;10.30;;;5.00;99.90;;;;;;4948001;28;20182;-77
2022/09/21 04:51:15;;;;;;;18.57;12.30;;;5.10;99.90;;;;;;4947323;28;20213;-78
2022/09/21 04:53:42;;;;;;;16.60;12.00;;;5.10;99.90;;;;;;4946298;28;20205;-77
2022/09/21 04:56:11;;;;;;;15.57;11.10;;;5.10;99.90;;;;;;4946287;28;20202;-78
2022/09/21 04:58:37;;;;;;;13.23;9.90;;;5.00;99.90;;;;;;4947763;28;20185;-78
2022/09/21 05:01:04;;;;;;;15.67;9.70;;;5.00;99.90;;;;;;4947233;28;20186;-79
2022/09/21 05:03:30;;;;;;;16.33;10.67;;;5.10;99.90;;;;;;4947657;28;20251;-77
2022/09/21 05:05:56;;;;;;;15.07;10.67;;;5.00;99.90;;;;;;4946157;28;20785;-79
2022/09/21 05:11:11;;;;;;;12.83;9.50;;;5.00;99.90;;;;;;4947467;28;20200;-78
2022/09/21 05:13:37;;;;;;;12.70;8.97;;;5.00;99.90;;;;;;4947536;28;20189;-78
2022/09/21 05:16:03;;;;;;;14.23;8.40;;;4.90;99.90;;;;;;4946925;28;20213;-80
2022/09/21 05:18:29;;;;;;;12.80;9.27;;;4.80;99.90;;;;;;4947335;28;20182;-79
2022/09/21 05:20:59;;;;;;;15.73;8.83;;;4.80;99.90;;;;;;4946932;28;20186;-78
2022/09/21 05:23:25;;;;;;;11.17;8.70;;;4.90;99.90;;;;;;4945399;28;20277;-78
2022/09/21 05:25:51;;;;;;;11.73;9.03;;;4.90;99.90;;;;;;4945558;28;20247;-78
2022/09/21 05:28:18;;;;;;;11.63;8.80;;;5.00;99.90;;;;;;4947116;28;20181;-77
2022/09/21 05:30:47;;;;;;;10.30;8.70;;;5.10;99.90;;;;;;4945363;28;20683;-77
2022/09/21 05:33:18;;;;;;;11.53;7.80;;;5.10;99.90;;;;;;4947419;28;21388;-77
2022/09/21 05:36:16;;;;;;;11.57;8.17;;;5.10;99.90;;;;;;4946472;28;20205;-76
2022/09/21 05:38:42;;;;;;;11.13;8.50;;;5.30;99.90;;;;;;4947057;28;20185;-78
2022/09/21 05:41:08;;;;;;;14.03;8.57;;;5.30;99.90;;;;;;4946363;28;20182;-79
2022/09/21 05:43:34;;;;;;;9.57;8.10;;;5.30;99.90;;;;;;4946911;28;20189;-77
2022/09/21 05:46:14;;;;;;;9.07;8.07;;;5.40;99.90;;;;;;4945702;28;20598;-78
2022/09/21 05:48:47;;;;;;;11.60;8.80;;;5.40;99.90;;;;;;4945915;28;20190;-78
2022/09/21 05:51:40;;;;;;;10.53;8.00;;;5.30;99.90;;;;;;4946675;28;20280;-78
2022/09/21 05:54:27;;;;;;;11.37;8.13;;;5.40;99.90;;;;;;4945337;28;20220;-77
2022/09/21 05:57:09;;;;;;;11.43;8.13;;;5.40;99.90;;;;;;4961148;28;20213;-79
2022/09/21 05:59:55;;;;;;;9.87;7.77;;;5.50;99.90;;;;;;4946892;28;20189;-77
2022/09/21 06:02:42;;;;;;;17.63;9.23;;;5.60;99.90;;;;;;4945045;28;20272;-77
2022/09/21 06:05:12;;;;;;;9.00;7.63;;;5.60;99.90;;;;;;4946588;28;20184;-77
2022/09/21 06:07:38;;;;;;;12.33;8.20;;;5.70;99.90;;;;;;4946514;28;20566;-77
2022/09/21 06:10:04;;;;;;;14.70;9.20;;;5.80;99.90;;;;;;4945278;28;20186;-78
2022/09/21 06:12:29;;;;;;;14.13;9.33;;;5.80;99.90;;;;;;4946122;28;20200;-78
2022/09/21 06:14:55;;;;;;;12.57;9.57;;;5.80;99.90;;;;;;4946198;28;20656;-76
2022/09/21 06:17:21;;;;;;;12.07;9.63;;;5.90;99.90;;;;;;4950194;28;20680;-79
2022/09/21 06:19:47;;;;;;;13.50;10.40;;;6.00;99.90;;;;;;4952597;28;20217;-76
2022/09/21 06:22:13;;;;;;;14.57;11.10;;;6.00;99.90;;;;;;4951287;28;20284;-77
2022/09/21 06:24:38;;;;;;;13.83;10.93;;;6.00;99.90;;;;;;4952220;28;20232;-77
2022/09/21 06:27:04;;;;;;;15.10;11.37;;;6.10;99.90;;;;;;4952807;28;20216;-77
2022/09/21 06:29:29;;;;;;;13.73;11.57;;;6.20;99.90;;;;;;4952750;28;20208;-78
2022/09/21 06:31:55;;;;;;;16.60;12.43;;;6.30;99.90;;;;;;4951115;28;20302;-79
2022/09/21 06:34:21;;;;;;;16.70;12.63;;;6.40;99.90;;;;;;4952992;28;20361;-78
2022/09/21 06:36:46;;;;;;;15.70;12.13;;;6.70;99.90;;;;;;4951074;28;20209;-78
2022/09/21 06:39:12;;;;;;;15.70;11.80;;;6.70;99.90;;;;;;4951402;28;20284;-78
2022/09/21 06:41:38;;;;;;;15.20;11.97;;;6.90;99.90;;;;;;4950417;28;20185;-76
2022/09/21 06:44:04;;;;;;;17.80;12.63;;;7.00;99.90;;;;;;4952852;28;20200;-77
2022/09/21 06:46:29;;;;;;;30.53;17.90;;;7.00;99.90;;;;;;4949664;28;20259;-77
2022/09/21 06:48:55;;;;;;;22.33;14.13;;;7.10;99.90;;;;;;4949580;28;20193;-79
2022/09/21 06:51:22;;;;;;;18.17;12.03;;;7.20;99.90;;;;;;4951619;28;20241;-78
2022/09/21 06:53:52;;;;;;;21.27;13.77;;;7.30;99.90;;;;;;4949595;28;20312;-77
2022/09/21 06:56:18;;;;;;;18.43;12.63;;;7.40;99.90;;;;;;4951360;28;20272;-78
2022/09/21 06:58:46;;;;;;;17.77;13.33;;;7.50;99.90;;;;;;4951595;28;20189;-79
2022/09/21 07:01:12;;;;;;;18.30;14.03;;;7.60;99.90;;;;;;4951614;28;20212;-78
2022/09/21 07:03:40;;;;;;;19.87;13.20;;;7.70;99.90;;;;;;4951858;28;20241;-77
2022/09/21 07:06:07;;;;;;;17.10;13.27;;;7.90;99.90;;;;;;4952245;28;20213;-78
2022/09/21 07:08:34;;;;;;;14.23;12.00;;;8.00;99.90;;;;;;4950384;28;21063;-78
2022/09/21 07:11:01;;;;;;;16.37;11.57;;;8.20;99.90;;;;;;4951978;28;20200;-78
2022/09/21 07:13:27;;;;;;;18.43;12.37;;;8.30;99.90;;;;;;4950245;28;20220;-77
2022/09/21 07:15:52;;;;;;;14.70;12.10;;;8.40;99.90;;;;;;4950157;28;20213;-77
2022/09/21 07:18:18;;;;;;;15.97;12.33;;;8.50;99.90;;;;;;4952107;28;20279;-79
2022/09/21 07:20:44;;;;;;;16.97;12.33;;;8.60;99.90;;;;;;4951717;28;20191;-78
2022/09/21 07:23:17;;;;;;;13.63;11.77;;;8.80;99.90;;;;;;4950123;28;20560;-78
2022/09/21 07:25:44;;;;;;;16.27;11.40;;;8.90;99.90;;;;;;4951310;28;20379;-79
2022/09/21 07:28:11;;;;;;;15.53;10.80;;;9.00;99.90;;;;;;4947810;28;20300;-78
2022/09/21 07:30:38;;;;;;;16.97;11.10;;;9.10;99.90;;;;;;4948478;28;20194;-78
2022/09/21 07:33:04;;;;;;;16.43;12.23;;;9.20;99.90;;;;;;4948191;28;20210;-77
2022/09/21 07:35:31;;;;;;;16.87;12.43;;;9.30;99.90;;;;;;4946590;28;20227;-77
2022/09/21 07:38:05;;;;;;;15.13;11.47;;;9.40;99.90;;;;;;4948322;28;20684;-77
2022/09/21 07:40:31;;;;;;;15.53;11.50;;;9.50;99.90;;;;;;4947248;28;20186;-78
2022/09/21 07:43:01;;;;;;;13.77;10.37;;;9.60;99.90;;;;;;4947864;28;20201;-77
2022/09/21 07:45:27;;;;;;;16.43;10.67;;;9.70;99.90;;;;;;4962420;28;20200;-77
2022/09/21 07:47:53;;;;;;;14.33;10.10;;;9.80;99.90;;;;;;4946808;28;20678;-79
2022/09/21 07:50:20;;;;;;;11.67;9.80;;;9.90;99.90;;;;;;4948614;28;20225;-77
2022/09/21 07:52:46;;;;;;;11.40;9.40;;;10.00;99.90;;;;;;4947810;28;20213;-79
2022/09/21 07:55:12;;;;;;;13.07;9.57;;;10.10;99.90;;;;;;4948133;28;20626;-77
2022/09/21 08:00:22;;;;;;;12.03;8.70;;;10.20;99.90;;;;;;4948788;28;20243;-77
2022/09/21 08:02:48;;;;;;;13.47;10.00;;;10.20;99.90;;;;;;4947288;28;20194;-78
2022/09/21 08:05:14;;;;;;;26.50;16.60;;;10.20;99.90;;;;;;4948234;28;20255;-77
2022/09/21 08:07:39;;;;;;;20.47;13.43;;;10.30;99.90;;;;;;4947560;28;20210;-77
2022/09/21 08:10:05;;;;;;;23.67;14.30;;;10.40;99.90;;;;;;4948179;28;20259;-77
2022/09/21 08:12:31;;;;;;;25.40;13.60;;;10.50;99.90;;;;;;4947739;28;20202;-80
2022/09/21 08:14:56;;;;;;;27.50;15.47;;;10.60;99.90;;;;;;4947749;28;20190;-77
2022/09/21 08:17:23;;;;;;;23.73;14.23;;;10.70;99.90;;;;;;4946204;28;20299;-79
2022/09/21 08:19:49;;;;;;;18.03;11.83;;;10.70;99.90;;;;;;4947863;28;20182;-78
2022/09/21 08:22:14;;;;;;;14.73;10.57;;;10.80;99.90;;;;;;4946429;28;20189;-79
2022/09/21 08:24:42;;;;;;;13.77;9.70;;;10.80;99.90;;;;;;4946419;28;20225;-80
2022/09/21 08:27:07;;;;;;;15.37;8.80;;;10.90;99.90;;;;;;4947361;28;20631;-79
2022/09/21 08:29:35;;;;;;;14.30;8.53;;;11.00;99.90;;;;;;4947452;28;20193;-77
2022/09/21 08:32:01;;;;;;;11.37;8.30;;;11.10;99.90;;;;;;4947025;28;20222;-78
2022/09/21 08:34:26;;;;;;;11.03;7.73;;;11.10;99.90;;;;;;4947145;28;20241;-77
2022/09/21 08:36:52;;;;;;;10.93;7.70;;;11.30;99.90;;;;;;4947424;28;20237;-79
2022/09/21 08:39:18;;;;;;;12.90;6.87;;;11.30;99.90;;;;;;4947596;28;20196;-76
2022/09/21 08:41:55;;;;;;;9.90;6.40;;;11.40;99.90;;;;;;4947111;28;20248;-78
2022/09/21 08:44:26;;;;;;;11.20;6.50;;;11.40;99.90;;;;;;4947330;28;20267;-80
2022/09/21 08:47:03;;;;;;;10.37;6.43;;;11.60;99.90;;;;;;4946795;28;20335;-77
2022/09/21 08:49:34;;;;;;;13.27;6.53;;;11.60;99.90;;;;;;4947504;28;20185;-79
2022/09/21 08:52:04;;;;;;;11.87;5.13;;;11.60;99.90;;;;;;4945679;28;20297;-78
2022/09/21 08:54:44;;;;;;;8.77;5.57;;;11.70;99.90;;;;;;4961775;28;20611;-77
2022/09/21 08:57:12;;;;;;;10.93;5.57;;;11.70;99.90;;;;;;4946292;28;20205;-78
2022/09/21 08:59:43;;;;;;;9.67;5.27;;;11.70;99.90;;;;;;4947134;28;20182;-77
2022/09/21 09:02:12;;;;;;;9.60;4.97;;;11.80;99.90;;;;;;4945335;28;20186;-77
2022/09/21 09:04:53;;;;;;;8.60;5.83;;;11.90;99.90;;;;;;4945607;28;20293;-78
2022/09/21 09:07:53;;;;;;;6.97;4.57;;;12.00;99.90;;;;;;4945654;28;20211;-77
2022/09/21 09:10:38;;;;;;;7.68;4.75;;;12.10;99.90;;;;;;4946003;28;20190;-78
2022/09/21 09:13:57;;;;;;;8.20;5.27;;;12.10;99.90;;;;;;4944752;28;20306;-77
2022/09/21 09:16:39;;;;;;;13.17;5.83;;;12.00;99.90;;;;;;4908171;29;20211;-77
2022/09/21 09:19:08;;;;;;;11.48;5.35;;;12.10;99.90;;;;;;4944750;28;20185;-77
2022/09/21 09:21:38;;;;;;;11.18;5.72;;;12.10;99.90;;;;;;4944012;28;20198;-79
2022/09/21 09:24:16;;;;;;;10.53;5.53;;;12.20;99.90;;;;;;4944015;28;20245;-79
2022/09/21 09:27:16;;;;;;;12.13;7.20;;;12.30;99.90;;;;;;4942572;28;20216;-78
2022/09/21 09:30:00;;;;;;;9.23;4.90;;;12.30;99.90;;;;;;4943067;28;20193;-78
2022/09/21 09:32:57;;;;;;;10.93;6.07;;;12.50;99.90;;;;;;4943794;28;20189;-77
2022/09/21 09:35:37;;;;;;;12.00;5.27;;;12.70;99.90;;;;;;4944001;28;20193;-77
2022/09/21 09:38:11;;;;;;;10.02;5.03;;;12.60;99.90;;;;;;4945516;28;20205;-77
2022/09/21 09:40:50;;;;;;;10.65;4.32;;;12.60;99.90;;;;;;4945665;28;20189;-78
2022/09/21 09:43:27;;;;;;;8.13;4.03;;;12.80;99.90;;;;;;4945631;28;20567;-77
2022/09/21 09:46:06;;;;;;;8.45;4.88;;;12.80;99.90;;;;;;4945373;28;20232;-80
2022/09/21 09:48:41;;;;;;;8.02;4.40;;;12.80;99.90;;;;;;4945284;28;20665;-77
2022/09/21 09:51:11;;;;;;;9.25;4.90;;;12.90;99.90;;;;;;4945200;28;20185;-77
2022/09/21 09:53:37;;;;;;;5.93;4.03;;;12.90;99.90;;;;;;4945258;28;20212;-76
2022/09/21 09:56:03;;;;;;;5.65;4.00;;;13.00;99.90;;;;;;4945166;28;20556;-79
2022/09/21 09:58:38;;;;;;;7.13;4.07;;;13.00;99.90;;;;;;4944057;28;20301;-77
2022/09/21 10:01:04;;;;;;;5.72;3.53;;;13.20;99.90;;;;;;4945735;28;20201;-79
2022/09/21 10:03:30;;;;;;;5.90;3.67;;;13.20;99.90;;;;;;4943547;28;20224;-77
2022/09/21 10:05:55;;;;;;;5.13;3.40;;;13.20;99.90;;;;;;4944111;28;20232;-79
2022/09/21 10:08:43;;;;;;;6.35;3.20;;;13.30;99.90;;;;;;4943807;28;20182;-79
2022/09/21 10:11:11;;;;;;;11.02;3.60;;;13.50;95.60;;;;;;4945790;28;20185;-77
2022/09/21 10:13:42;;;;;;;5.82;3.50;;;13.50;99.90;;;;;;4944000;28;20572;-78
2022/09/21 10:16:14;;;;;;;10.25;3.83;;;13.50;99.90;;;;;;4944117;28;20766;-78
2022/09/21 10:18:51;;;;;;;7.07;3.20;;;13.50;99.90;;;;;;4943629;28;20245;-78
2022/09/21 10:21:26;;;;;;;6.93;3.15;;;13.60;99.90;;;;;;4944210;28;20307;-77
2022/09/21 10:24:01;;;;;;;7.10;3.65;;;13.60;99.90;;;;;;4943558;28;20562;-78
2022/09/21 10:26:40;;;;;;;6.78;3.70;;;13.70;99.90;;;;;;4945572;28;20254;-79
2022/09/21 10:29:24;;;;;;;7.63;3.33;;;13.70;99.90;;;;;;4943936;28;20216;-77
2022/09/21 10:32:00;;;;;;;5.18;2.72;;;13.80;89.80;;;;;;4943941;28;20524;-77
2022/09/21 10:34:30;;;;;;;5.55;2.80;;;14.00;24.20;;;;;;4944596;28;20236;-77
2022/09/21 10:36:58;;;;;;;6.40;3.00;;;14.10;21.80;;;;;;4943317;28;20292;-76
2022/09/21 10:39:25;;;;;;;7.18;2.90;;;14.00;77.20;;;;;;4945337;28;20268;-78
2022/09/21 10:42:12;;;;;;;6.50;2.60;;;14.20;42.20;;;;;;4945278;28;20711;-80
2022/09/21 10:44:41;;;;;;;4.97;2.47;;;14.30;30.30;;;;;;4945215;28;20906;-79
2022/09/21 10:47:21;;;;;;;5.15;2.50;;;14.40;30.60;;;;;;4943344;28;20225;-77
2022/09/21 10:49:56;;;;;;;5.13;2.60;;;14.40;1.00;;;;;;4945354;28;20660;-78
2022/09/21 10:52:30;;;;;;;6.43;2.53;;;14.50;11.20;;;;;;4943996;28;20193;-78
2022/09/21 10:54:56;;;;;;;6.18;2.42;;;14.60;5.30;;;;;;4944991;28;20280;-79
2022/09/21 10:57:24;;;;;;;5.38;2.28;;;14.60;21.10;;;;;;4945203;28;20253;-78
2022/09/21 10:59:50;;;;;;;4.68;1.98;;;14.70;1.00;;;;;;4944820;28;20189;-78
2022/09/21 11:02:30;;;;;;;6.68;2.20;;;14.80;1.00;;;;;;4944542;28;20687;-77
2022/09/21 11:05:01;;;;;;;6.10;2.53;;;15.00;1.00;;;;;;4948277;28;20221;-79
2022/09/21 11:07:36;;;;;;;5.05;1.90;;;15.00;1.00;;;;;;4947572;28;20680;-77
2022/09/21 11:10:25;;;;;;;4.15;1.67;;;15.20;1.00;;;;;;4947958;28;20180;-77
2022/09/21 11:13:07;;;;;;;4.38;1.60;;;15.10;1.00;;;;;;4949160;28;20228;-78
2022/09/21 11:15:48;;;;;;;5.20;1.65;;;15.10;1.00;;;;;;4964152;28;20253;-78
2022/09/21 11:18:42;;;;;;;3.60;1.70;;;15.20;1.00;;;;;;4949305;28;20181;-80
2022/09/21 11:21:11;;;;;;;4.18;1.73;;;15.30;1.00;;;;;;4959092;28;20294;-77
2022/09/21 11:23:54;;;;;;;5.28;2.03;;;15.20;1.00;;;;;;4949139;28;20202;-78
2022/09/21 11:27:02;;;;;;;3.35;1.73;;;15.20;1.00;;;;;;4949374;28;20212;-78
2022/09/21 11:29:41;;;;;;;5.03;1.73;;;15.20;1.00;;;;;;4943708;28;21021;-77
2022/09/21 11:32:18;;;;;;;4.03;1.67;;;15.40;1.00;;;;;;4949479;28;20656;-79
2022/09/21 11:35:02;;;;;;;3.53;1.55;;;15.70;99.90;;;;;;4947631;28;20321;-78
2022/09/21 11:37:46;;;;;;;6.70;1.83;;;15.80;99.90;;;;;;4948607;28;20273;-77
2022/09/21 11:40:37;;;;;;;4.18;1.75;;;16.20;99.90;;;;;;4948836;28;20237;-78
2022/09/21 11:43:33;;;;;;;4.15;1.42;;;16.40;99.90;;;;;;4947530;28;20297;-78
2022/09/21 11:46:23;;;;;;;4.35;1.70;;;16.60;99.90;;;;;;4946708;28;20232;-78
2022/09/21 11:49:26;;;;;;;3.88;1.67;;;16.80;1.00;;;;;;4946403;28;20193;-77
2022/09/21 11:52:09;;;;;;;3.25;1.17;;;16.70;99.90;;;;;;4948244;28;20332;-77
2022/09/21 11:54:54;;;;;;;2.38;0.88;;;16.60;90.00;;;;;;4946493;28;20213;-76
2022/09/21 11:57:27;;;;;;;3.22;1.40;;;16.30;99.90;;;;;;4962572;28;20221;-78
2022/09/21 12:00:06;;;;;;;2.70;1.05;;;16.20;1.00;;;;;;4947844;28;20182;-78
2022/09/21 12:02:59;;;;;;;2.60;1.00;;;16.00;99.90;;;;;;4946289;28;20205;-77
2022/09/21 12:05:45;;;;;;;2.22;0.80;;;16.00;99.90;;;;;;4962498;28;20603;-78
2022/09/21 12:08:29;;;;;;;3.13;1.13;;;15.90;1.00;;;;;;4947938;28;20215;-77
2022/09/21 12:11:16;;;;;;;3.53;1.08;;;15.90;1.00;;;;;;4946159;28;20192;-78
2022/09/21 12:14:14;;;;;;;2.83;1.17;;;15.90;1.00;;;;;;4961609;28;20256;-77
2022/09/21 12:16:42;;;;;;;3.85;1.15;;;15.90;99.90;;;;;;4962328;28;20209;-78
2022/09/21 12:19:23;;;;;;;5.15;1.23;;;15.90;1.00;;;;;;4946214;28;20241;-78
2022/09/21 12:21:54;;;;;;;4.57;1.10;;;15.80;57.80;;;;;;4962416;28;20190;-78
2022/09/21 12:24:29;;;;;;;4.45;1.70;;;15.70;99.90;;;;;;4946097;28;20188;-78
2022/09/21 12:27:05;;;;;;;2.47;1.10;;;15.50;99.90;;;;;;4947188;28;20292;-78
2022/09/21 12:29:43;;;;;;;3.13;1.13;;;15.50;90.20;;;;;;4946240;28;20232;-78
2022/09/21 12:32:52;;;;;;;4.85;1.38;;;15.40;76.60;;;;;;4945357;28;20189;-78
2022/09/21 12:36:02;;;;;;;3.10;1.23;;;15.30;1.00;;;;;;4949027;28;20177;-78
2022/09/21 12:39:02;;;;;;;3.92;1.10;;;15.20;22.00;;;;;;4947992;28;20178;-77
2022/09/21 12:41:39;;;;;;;3.92;0.95;;;15.20;50.10;;;;;;4937056;28;20217;-78
2022/09/21 12:44:15;;;;;;;4.25;1.27;;;15.10;1.00;;;;;;4947567;28;20212;-78
2022/09/21 12:47:07;;;;;;;3.47;0.90;;;15.00;99.90;;;;;;4961749;28;21416;-78
2022/09/21 12:49:39;;;;;;;3.03;1.05;;;15.00;99.90;;;;;;4946516;28;20268;-78
2022/09/21 12:52:05;;;;;;;3.90;1.08;;;14.90;1.00;;;;;;4946956;28;20197;-79
2022/09/21 12:54:55;;;;;;;3.45;1.10;;;14.80;99.90;;;;;;4945633;28;20256;-78
2022/09/21 12:57:36;;;;;;;3.03;1.40;;;14.80;99.90;;;;;;4945499;28;20293;-78
2022/09/21 13:00:08;;;;;;;2.00;1.05;;;14.80;1.00;;;;;;4946432;28;20185;-78
2022/09/21 13:02:48;;;;;;;2.75;0.95;;;15.00;1.00;;;;;;4946657;28;20217;-78
2022/09/21 13:05:37;;;;;;;2.00;0.82;;;15.20;1.00;;;;;;4947311;28;20181;-77
2022/09/21 13:08:03;;;;;;;3.40;1.08;;;15.30;99.90;;;;;;4946989;28;20698;-77
2022/09/21 13:10:38;;;;;;;7.85;2.90;;;15.40;1.00;;;;;;4947001;28;20317;-79
2022/09/21 13:13:07;;;;;;;8.00;3.33;;;15.60;99.90;;;;;;4945543;28;20224;-79
2022/09/21 13:15:49;;;;;;;2.45;0.90;;;15.90;1.00;;;;;;4946055;28;20273;-79
2022/09/21 13:18:17;;;;;;;2.67;0.95;;;16.00;1.00;;;;;;4945757;28;20920;-78
2022/09/21 13:20:43;;;;;;;3.03;0.82;;;16.10;1.00;;;;;;4946184;28;20674;-78
2022/09/21 13:23:20;;;;;;;14.10;6.07;;;16.20;1.00;;;;;;4945471;28;20636;-77